Time;durP1;ratioP1;P1;durP2;ratioP2;P2;SDS_P1;SDS_P2;PMS_P1;PMS_P2;Temp;Humidity;BMP_temperature;BMP_pressure;BME280_temperature;BME280_humidity;BME280_pressure;Samples;Min_cycle;Max_cycle;Signal;HPM_P1;HPM_P2
2022/11/22 00:00:38;;;;;;;22.73;13.45;;;4.10;99.90;;;;;;5104271;27;20138;-66
2022/11/22 00:03:03;;;;;;;21.48;13.60;;;4.10;99.90;;;;;;5110217;27;20078;-66
2022/11/22 00:05:29;;;;;;;21.30;13.30;;;4.10;99.90;;;;;;5094613;27;20078;-65
2022/11/22 00:07:55;;;;;;;19.55;11.75;;;4.10;99.90;;;;;;5108738;27;20490;-66
2022/11/22 00:10:20;;;;;;;23.60;13.45;;;4.10;99.90;;;;;;5131716;27;20401;-65
2022/11/22 00:12:46;;;;;;;18.58;11.43;;;4.10;99.90;;;;;;5113409;27;20039;-66
2022/11/22 00:15:12;;;;;;;18.33;11.10;;;4.10;99.90;;;;;;5112834;27;20041;-65
2022/11/22 00:17:38;;;;;;;20.13;12.45;;;4.10;99.90;;;;;;5092155;27;20473;-66
2022/11/22 00:20:06;;;;;;;18.83;11.77;;;4.10;99.90;;;;;;5110953;27;20403;-65
2022/11/22 00:22:32;;;;;;;17.52;11.13;;;4.20;99.90;;;;;;5111780;27;20035;-66
2022/11/22 00:24:58;;;;;;;18.35;11.10;;;4.20;99.90;;;;;;5108835;27;20367;-66
2022/11/22 00:27:23;;;;;;;17.10;10.32;;;4.20;99.90;;;;;;5112426;27;20056;-66
2022/11/22 00:29:49;;;;;;;18.85;11.25;;;4.20;99.90;;;;;;5109520;27;20042;-66
2022/11/22 00:32:15;;;;;;;17.05;10.68;;;4.20;99.90;;;;;;5112558;27;20397;-66
2022/11/22 00:34:40;;;;;;;17.15;10.48;;;4.20;99.90;;;;;;5112955;27;20450;-66
2022/11/22 00:37:06;;;;;;;20.27;10.70;;;4.20;99.90;;;;;;5092016;27;20134;-66
2022/11/22 00:39:32;;;;;;;17.73;11.00;;;4.30;99.90;;;;;;5109131;27;20670;-65
2022/11/22 00:41:57;;;;;;;19.17;9.93;;;4.30;99.90;;;;;;5095172;27;20147;-65
2022/11/22 00:44:23;;;;;;;19.38;11.18;;;4.30;99.90;;;;;;5111508;27;20043;-66
2022/11/22 00:46:49;;;;;;;13.20;10.10;;;4.20;99.90;;;;;;5112384;27;20365;-66
2022/11/22 00:49:14;;;;;;;17.45;11.05;;;4.20;99.90;;;;;;5117804;27;20043;-66
2022/11/22 00:51:40;;;;;;;17.98;11.27;;;4.20;99.90;;;;;;5107859;27;20083;-66
2022/11/22 00:54:06;;;;;;;18.70;10.88;;;4.20;99.90;;;;;;5110402;27;20039;-66
2022/11/22 00:56:32;;;;;;;17.33;11.15;;;4.20;99.90;;;;;;5108718;27;20035;-66
2022/11/22 00:58:58;;;;;;;18.45;10.88;;;4.20;99.90;;;;;;5106695;27;20042;-66
2022/11/22 01:01:24;;;;;;;20.25;12.15;;;4.20;99.90;;;;;;5105425;27;20051;-66
2022/11/22 01:03:49;;;;;;;17.10;10.65;;;4.20;99.90;;;;;;5113091;27;20039;-65
2022/11/22 01:06:15;;;;;;;19.05;10.95;;;4.20;99.90;;;;;;5106204;27;20108;-65
2022/11/22 01:08:41;;;;;;;17.42;10.90;;;4.20;99.90;;;;;;5111419;27;20043;-65
2022/11/22 01:11:07;;;;;;;16.92;11.75;;;4.20;99.90;;;;;;5111525;27;20062;-66
2022/11/22 01:13:32;;;;;;;17.58;11.75;;;4.10;99.90;;;;;;5105776;27;20039;-65
2022/11/22 01:16:00;;;;;;;19.17;11.55;;;4.20;99.90;;;;;;5109762;27;20039;-66
2022/11/22 01:18:25;;;;;;;18.33;12.27;;;4.10;99.90;;;;;;5110037;27;20095;-66
2022/11/22 01:20:51;;;;;;;20.52;12.00;;;4.20;99.90;;;;;;5110460;27;20051;-66
2022/11/22 01:23:16;;;;;;;19.30;11.38;;;4.10;99.90;;;;;;5110447;27;20071;-66
2022/11/22 01:25:43;;;;;;;20.08;11.75;;;4.10;99.90;;;;;;5107724;27;20126;-65
2022/11/22 01:28:09;;;;;;;18.73;11.77;;;4.10;99.90;;;;;;5107328;27;20087;-65
2022/11/22 01:30:35;;;;;;;18.20;11.38;;;4.20;99.90;;;;;;5097200;27;20467;-65
2022/11/22 01:33:01;;;;;;;17.75;11.38;;;4.10;99.90;;;;;;5103150;27;20031;-66
2022/11/22 01:35:26;;;;;;;21.00;11.40;;;4.10;99.90;;;;;;5108643;27;20122;-66
2022/11/22 01:37:52;;;;;;;23.00;12.95;;;4.10;99.90;;;;;;5109690;27;20095;-65
2022/11/22 01:40:18;;;;;;;15.90;10.60;;;4.10;99.90;;;;;;5103521;27;20417;-66
2022/11/22 01:42:52;;;;;;;18.63;11.65;;;4.10;99.90;;;;;;5109137;27;20359;-66
2022/11/22 01:45:30;;;;;;;18.60;11.10;;;4.10;99.90;;;;;;5083866;27;20172;-66
2022/11/22 01:48:12;;;;;;;22.23;11.85;;;4.10;99.90;;;;;;5107218;27;20069;-66
2022/11/22 01:50:41;;;;;;;20.53;11.43;;;4.10;99.90;;;;;;5109548;27;20431;-66
2022/11/22 01:53:16;;;;;;;17.58;10.85;;;4.10;99.90;;;;;;5110785;27;20043;-66
2022/11/22 01:55:42;;;;;;;18.65;11.45;;;4.20;99.90;;;;;;5107835;27;20058;-65
2022/11/22 01:58:09;;;;;;;20.08;11.48;;;4.20;99.90;;;;;;5109086;28;20034;-66
2022/11/22 02:00:37;;;;;;;17.23;11.35;;;4.10;99.90;;;;;;5101405;28;20081;-65
2022/11/22 02:03:04;;;;;;;17.73;11.50;;;4.20;99.90;;;;;;5106894;28;20054;-65
2022/11/22 02:05:33;;;;;;;18.52;11.25;;;4.20;99.90;;;;;;5106542;28;20112;-66
2022/11/22 02:08:12;;;;;;;19.67;11.18;;;4.20;99.90;;;;;;5104265;28;20494;-65
2022/11/22 02:10:43;;;;;;;15.70;10.40;;;4.20;99.90;;;;;;5108046;28;20524;-66
2022/11/22 02:13:10;;;;;;;19.27;12.02;;;4.20;99.90;;;;;;5108978;28;20088;-66
2022/11/22 02:15:36;;;;;;;15.68;10.75;;;4.30;99.90;;;;;;5104969;28;20127;-66
2022/11/22 02:18:02;;;;;;;17.63;10.63;;;4.20;99.90;;;;;;5104185;28;20039;-66
2022/11/22 02:20:28;;;;;;;15.93;10.32;;;4.30;99.90;;;;;;5107634;28;20397;-65
2022/11/22 02:22:56;;;;;;;19.58;11.02;;;4.30;99.90;;;;;;5103223;28;20084;-66
2022/11/22 02:25:31;;;;;;;17.92;11.73;;;4.30;99.90;;;;;;5102147;28;20607;-66
2022/11/22 02:27:57;;;;;;;16.27;11.02;;;4.30;99.90;;;;;;5103788;28;20043;-66
2022/11/22 02:30:23;;;;;;;16.25;10.98;;;4.30;99.90;;;;;;5102904;28;20436;-65
2022/11/22 02:32:48;;;;;;;18.08;11.45;;;4.30;99.90;;;;;;5105291;28;20051;-65
2022/11/22 02:35:24;;;;;;;16.15;11.45;;;4.30;99.90;;;;;;5107434;28;20040;-66
2022/11/22 02:37:55;;;;;;;18.55;11.93;;;4.30;99.90;;;;;;5106289;28;20115;-66
2022/11/22 02:40:22;;;;;;;17.08;11.48;;;4.30;99.90;;;;;;5106946;28;20122;-65
2022/11/22 02:42:52;;;;;;;19.05;11.85;;;4.30;99.90;;;;;;5090566;28;20047;-65
2022/11/22 02:45:18;;;;;;;17.35;11.18;;;4.30;99.90;;;;;;5102654;28;20046;-66
2022/11/22 02:47:44;;;;;;;17.17;11.20;;;4.30;99.90;;;;;;5088293;28;20052;-66
2022/11/22 02:50:09;;;;;;;19.75;11.65;;;4.30;99.90;;;;;;5087549;28;20104;-66
2022/11/22 02:52:35;;;;;;;19.63;11.00;;;4.30;99.90;;;;;;5106589;28;20031;-66
2022/11/22 02:55:00;;;;;;;18.95;11.40;;;4.30;99.90;;;;;;5107972;28;20031;-65
2022/11/22 02:57:26;;;;;;;16.35;10.85;;;4.30;99.90;;;;;;5107109;28;20044;-66
2022/11/22 02:59:52;;;;;;;19.35;11.40;;;4.40;99.90;;;;;;5107252;28;20027;-66
2022/11/22 03:02:17;;;;;;;18.25;11.75;;;4.40;99.90;;;;;;5103755;28;20463;-65
2022/11/22 03:04:43;;;;;;;21.27;11.68;;;4.40;99.90;;;;;;5111084;28;20477;-65
2022/11/22 03:07:09;;;;;;;17.00;11.82;;;4.40;99.90;;;;;;5108420;28;20077;-66
2022/11/22 03:09:35;;;;;;;16.83;11.25;;;4.40;99.90;;;;;;5108607;28;20039;-66
2022/11/22 03:12:00;;;;;;;14.85;11.23;;;4.40;99.90;;;;;;5109825;28;20042;-66
2022/11/22 03:14:26;;;;;;;17.02;10.77;;;4.40;99.90;;;;;;5129077;28;20038;-66
2022/11/22 03:16:51;;;;;;;18.80;12.18;;;4.50;99.90;;;;;;5107974;28;20129;-66
2022/11/22 03:19:17;;;;;;;19.55;11.25;;;4.50;99.90;;;;;;5109319;27;20054;-65
2022/11/22 03:21:43;;;;;;;18.75;11.70;;;4.50;99.90;;;;;;5112703;27;20054;-67
2022/11/22 03:24:10;;;;;;;15.95;10.98;;;4.50;99.90;;;;;;5112931;27;20506;-66
2022/11/22 03:26:36;;;;;;;18.40;11.60;;;4.50;99.90;;;;;;5115778;27;20039;-66
2022/11/22 03:29:02;;;;;;;17.90;11.45;;;4.50;99.90;;;;;;5110639;27;20083;-66
2022/11/22 03:31:28;;;;;;;15.75;10.73;;;4.60;99.90;;;;;;5108282;27;20112;-66
2022/11/22 03:33:54;;;;;;;15.55;10.80;;;4.60;99.90;;;;;;5112122;27;20134;-66
2022/11/22 03:36:20;;;;;;;17.45;10.98;;;4.60;99.90;;;;;;5111082;27;20043;-66
2022/11/22 03:38:46;;;;;;;20.45;10.93;;;4.70;99.90;;;;;;5129217;27;20035;-65
2022/11/22 03:41:12;;;;;;;18.00;10.65;;;4.70;99.90;;;;;;5096058;27;20409;-66
2022/11/22 03:43:37;;;;;;;17.83;11.40;;;4.70;99.90;;;;;;5112445;27;20508;-66
2022/11/22 03:46:03;;;;;;;16.20;10.65;;;4.70;99.90;;;;;;5113540;27;20031;-66
2022/11/22 03:48:29;;;;;;;17.48;11.00;;;4.80;99.90;;;;;;5110654;27;20442;-66
2022/11/22 03:51:05;;;;;;;19.08;10.57;;;4.80;99.90;;;;;;5112443;27;20035;-65
2022/11/22 03:53:32;;;;;;;14.85;10.60;;;4.80;99.90;;;;;;5112051;27;20039;-66
2022/11/22 03:55:57;;;;;;;15.75;10.63;;;4.80;99.90;;;;;;5113576;27;20122;-66
2022/11/22 03:58:23;;;;;;;15.55;10.48;;;4.90;99.90;;;;;;5113958;27;20122;-66
2022/11/22 04:00:49;;;;;;;17.58;10.32;;;4.90;99.90;;;;;;5111764;27;20053;-65
2022/11/22 04:03:14;;;;;;;19.30;10.40;;;4.90;99.90;;;;;;5112587;27;20042;-66
2022/11/22 04:05:40;;;;;;;15.23;10.15;;;4.90;99.90;;;;;;5112166;27;20047;-66
2022/11/22 04:08:06;;;;;;;17.95;10.50;;;5.00;99.90;;;;;;5111463;27;20042;-65
2022/11/22 04:10:31;;;;;;;14.43;10.20;;;5.00;99.90;;;;;;5109929;27;20076;-65
2022/11/22 04:12:57;;;;;;;18.88;10.48;;;5.00;99.90;;;;;;5095179;27;20043;-65
2022/11/22 04:15:24;;;;;;;15.05;10.30;;;5.00;99.90;;;;;;5132186;27;20593;-66
2022/11/22 04:17:49;;;;;;;16.35;10.43;;;5.10;99.90;;;;;;5110632;28;20088;-66
2022/11/22 04:23:06;;;;;;;15.68;10.23;;;5.10;99.90;;;;;;5111628;27;20043;-66
2022/11/22 04:25:33;;;;;;;13.52;9.95;;;5.20;99.90;;;;;;5128189;27;20074;-66
2022/11/22 04:27:59;;;;;;;19.08;11.65;;;5.20;99.90;;;;;;5110668;27;20067;-66
2022/11/22 04:33:11;;;;;;;17.85;10.75;;;5.20;99.90;;;;;;5114531;27;20493;-65
2022/11/22 04:35:37;;;;;;;18.70;10.25;;;5.20;99.90;;;;;;5128487;27;20455;-66
2022/11/22 04:38:03;;;;;;;15.02;10.07;;;5.20;99.90;;;;;;5111093;27;20058;-66
2022/11/22 04:40:29;;;;;;;18.17;11.63;;;5.20;99.90;;;;;;5109687;27;20462;-65
2022/11/22 04:45:39;;;;;;;17.05;10.30;;;5.30;99.90;;;;;;5103841;27;20046;-66
2022/11/22 04:48:05;;;;;;;18.17;11.02;;;5.30;99.90;;;;;;5109604;27;20031;-66
2022/11/22 04:53:16;;;;;;;19.30;10.80;;;5.30;99.90;;;;;;5113691;27;20406;-66
2022/11/22 04:55:44;;;;;;;16.83;10.38;;;5.30;99.90;;;;;;5106622;27;20039;-66
2022/11/22 04:58:11;;;;;;;17.08;10.75;;;5.30;99.90;;;;;;5106874;27;20051;-65
2022/11/22 05:00:37;;;;;;;18.30;10.35;;;5.40;99.90;;;;;;5108546;27;20047;-65
2022/11/22 05:03:03;;;;;;;18.10;10.75;;;5.40;99.90;;;;;;5113756;27;20176;-65
2022/11/22 05:05:29;;;;;;;17.83;10.55;;;5.40;99.90;;;;;;5110351;27;20043;-65
2022/11/22 05:07:57;;;;;;;17.38;9.65;;;5.40;99.90;;;;;;5109428;27;20355;-64
2022/11/22 05:10:22;;;;;;;15.52;9.68;;;5.40;99.90;;;;;;5110677;27;20043;-64
2022/11/22 05:12:48;;;;;;;17.70;9.93;;;5.40;99.90;;;;;;5106929;27;20038;-65
2022/11/22 05:15:14;;;;;;;19.23;10.55;;;5.50;99.90;;;;;;5110474;27;20047;-65
2022/11/22 05:17:39;;;;;;;17.58;10.38;;;5.50;99.90;;;;;;5107655;27;20059;-65
2022/11/22 05:20:09;;;;;;;14.68;9.77;;;5.50;99.90;;;;;;5109997;27;20470;-65
2022/11/22 05:25:19;;;;;;;19.73;10.45;;;5.50;99.90;;;;;;5101297;27;20133;-64
2022/11/22 05:27:45;;;;;;;18.15;9.48;;;5.50;99.90;;;;;;5117649;27;20090;-65
2022/11/22 05:30:11;;;;;;;16.02;8.75;;;5.50;99.90;;;;;;5103084;27;20232;-64
2022/11/22 05:32:36;;;;;;;15.00;9.30;;;5.50;99.90;;;;;;5111803;27;20039;-65
2022/11/22 05:35:02;;;;;;;19.88;9.23;;;5.50;99.90;;;;;;5108521;27;20043;-65
2022/11/22 05:37:28;;;;;;;19.63;9.90;;;5.50;99.90;;;;;;5111040;27;20482;-66
2022/11/22 05:39:54;;;;;;;18.55;9.27;;;5.50;99.90;;;;;;5107888;27;20054;-65
2022/11/22 05:42:20;;;;;;;16.40;8.90;;;5.50;99.90;;;;;;5111065;27;20051;-65
2022/11/22 05:44:45;;;;;;;16.63;9.18;;;5.50;99.90;;;;;;5107106;27;20512;-65
2022/11/22 05:47:11;;;;;;;13.77;8.25;;;5.50;99.90;;;;;;5108646;27;20035;-65
2022/11/22 05:49:37;;;;;;;18.73;8.55;;;5.50;99.90;;;;;;5118057;27;20099;-65
2022/11/22 05:52:03;;;;;;;16.60;8.07;;;5.50;99.90;;;;;;5106213;27;20555;-65
2022/11/22 05:54:29;;;;;;;19.52;8.13;;;5.50;99.90;;;;;;5107042;27;20035;-65
2022/11/22 05:56:55;;;;;;;16.20;7.60;;;5.50;99.90;;;;;;5129519;27;20039;-65
2022/11/22 05:59:21;;;;;;;16.13;7.70;;;5.40;99.90;;;;;;5124538;27;20047;-65
2022/11/22 06:01:47;;;;;;;18.15;7.57;;;5.50;99.90;;;;;;5117664;27;20397;-65
2022/11/22 06:04:13;;;;;;;15.05;7.60;;;5.50;99.90;;;;;;5102739;27;20131;-64
2022/11/22 06:06:38;;;;;;;15.35;7.57;;;5.40;99.90;;;;;;5093566;27;20134;-65
2022/11/22 06:09:04;;;;;;;12.98;7.82;;;5.40;99.90;;;;;;5108405;27;20023;-64
2022/11/22 06:11:30;;;;;;;14.30;6.80;;;5.40;99.90;;;;;;5112573;27;20124;-67
2022/11/22 06:13:58;;;;;;;15.07;7.40;;;5.40;99.90;;;;;;5110287;27;20051;-68
2022/11/22 06:16:25;;;;;;;11.35;6.82;;;5.30;99.90;;;;;;5108648;27;20055;-68
2022/11/22 06:18:52;;;;;;;12.48;6.70;;;5.30;99.90;;;;;;5110063;27;20039;-68
2022/11/22 06:21:23;;;;;;;16.02;7.32;;;5.30;99.90;;;;;;5112399;27;20235;-67
2022/11/22 06:23:50;;;;;;;18.25;7.32;;;5.30;99.90;;;;;;5111628;27;20219;-67
2022/11/22 06:26:18;;;;;;;14.18;6.63;;;5.30;99.90;;;;;;5111956;28;20047;-67
2022/11/22 06:28:44;;;;;;;14.93;6.75;;;5.20;99.90;;;;;;5111142;28;20603;-67
2022/11/22 06:31:14;;;;;;;16.15;6.57;;;5.20;99.90;;;;;;5106130;27;20564;-67
2022/11/22 06:33:41;;;;;;;13.38;6.63;;;5.20;99.90;;;;;;5109895;28;20110;-68
2022/11/22 06:36:12;;;;;;;16.23;6.32;;;5.20;99.90;;;;;;5109053;28;20539;-67
2022/11/22 06:38:40;;;;;;;12.93;6.72;;;5.20;99.90;;;;;;5090257;28;20096;-68
2022/11/22 06:41:09;;;;;;;17.10;5.75;;;5.20;99.90;;;;;;5094596;28;20065;-67
2022/11/22 06:43:36;;;;;;;14.82;5.75;;;5.10;99.90;;;;;;5131018;28;20027;-67
2022/11/22 06:46:04;;;;;;;13.23;6.07;;;5.10;99.90;;;;;;5109998;28;20041;-70
2022/11/22 06:48:31;;;;;;;12.05;5.75;;;5.10;99.90;;;;;;5109468;28;20123;-68
2022/11/22 06:51:02;;;;;;;11.25;6.25;;;5.10;99.90;;;;;;5112005;28;20550;-66
2022/11/22 06:53:28;;;;;;;12.07;5.95;;;5.00;99.90;;;;;;5112283;27;20042;-67
2022/11/22 06:56:05;;;;;;;15.15;5.97;;;5.00;99.90;;;;;;5096167;27;20047;-68
2022/11/22 06:58:31;;;;;;;13.32;5.45;;;5.00;99.90;;;;;;5098209;27;20035;-67
2022/11/22 07:01:11;;;;;;;15.57;6.35;;;5.00;99.90;;;;;;5116368;27;20439;-67
2022/11/22 07:03:39;;;;;;;17.00;6.07;;;5.00;99.90;;;;;;5098774;27;20095;-68
2022/11/22 07:06:06;;;;;;;16.23;5.93;;;5.00;99.90;;;;;;5114518;27;20061;-67
2022/11/22 07:08:32;;;;;;;15.48;5.95;;;4.90;99.90;;;;;;5114182;27;20482;-68
2022/11/22 07:11:12;;;;;;;16.75;5.40;;;5.00;99.90;;;;;;5112542;27;20054;-67
2022/11/22 07:13:38;;;;;;;15.05;5.82;;;4.90;99.90;;;;;;5099374;27;20031;-68
2022/11/22 07:16:06;;;;;;;20.30;6.30;;;4.90;99.90;;;;;;5107282;27;20420;-68
2022/11/22 07:18:32;;;;;;;13.10;4.95;;;4.90;99.90;;;;;;5114543;27;20035;-68
2022/11/22 07:21:12;;;;;;;23.17;5.95;;;4.90;99.90;;;;;;5116745;27;20041;-68
2022/11/22 07:23:39;;;;;;;16.02;4.68;;;4.90;99.90;;;;;;5116973;27;20038;-68
2022/11/22 07:26:05;;;;;;;12.07;4.55;;;4.90;99.90;;;;;;5116448;27;20430;-68
2022/11/22 07:28:31;;;;;;;11.43;4.75;;;4.90;99.90;;;;;;5109637;27;20046;-69
2022/11/22 07:31:04;;;;;;;9.90;3.75;;;4.90;99.90;;;;;;5116572;27;20114;-68
2022/11/22 07:33:30;;;;;;;14.05;4.53;;;4.80;99.90;;;;;;5116400;27;20035;-68
2022/11/22 07:36:02;;;;;;;13.93;5.10;;;4.80;99.90;;;;;;5115972;27;20046;-69
2022/11/22 07:38:27;;;;;;;9.80;3.50;;;4.80;99.90;;;;;;5115526;27;20047;-68
2022/11/22 07:40:53;;;;;;;10.00;3.72;;;4.80;99.90;;;;;;5114755;27;20524;-69
2022/11/22 07:43:19;;;;;;;18.15;3.67;;;4.90;99.90;;;;;;5113859;27;20093;-68
2022/11/22 07:45:44;;;;;;;13.73;4.10;;;4.80;99.90;;;;;;5115175;27;20645;-67
2022/11/22 07:48:13;;;;;;;11.57;3.50;;;4.80;99.90;;;;;;5114378;27;20032;-69
2022/11/22 07:50:40;;;;;;;8.77;3.15;;;4.80;99.90;;;;;;5112263;27;20138;-67
2022/11/22 07:53:06;;;;;;;20.67;3.75;;;4.90;99.90;;;;;;5114410;27;20039;-69
2022/11/22 07:55:31;;;;;;;11.45;3.30;;;4.90;99.90;;;;;;5097354;27;20379;-68
2022/11/22 07:57:58;;;;;;;10.15;3.35;;;4.90;99.90;;;;;;5113287;27;20469;-68
2022/11/22 08:00:25;;;;;;;13.02;3.67;;;4.90;99.90;;;;;;5114327;27;20068;-69
2022/11/22 08:02:50;;;;;;;9.82;3.95;;;4.90;99.90;;;;;;5113306;27;21076;-68
2022/11/22 08:05:16;;;;;;;18.80;3.85;;;5.00;99.90;;;;;;5094810;27;20048;-68
2022/11/22 08:07:49;;;;;;;12.13;3.40;;;4.90;99.90;;;;;;5111322;27;20051;-68
2022/11/22 08:10:16;;;;;;;12.27;2.92;;;5.00;99.90;;;;;;5096907;27;20038;-69
2022/11/22 08:12:42;;;;;;;15.55;3.20;;;5.00;99.90;;;;;;5113630;27;20508;-68
2022/11/22 08:15:08;;;;;;;10.77;2.90;;;5.10;99.90;;;;;;5114934;27;20043;-69
2022/11/22 08:17:34;;;;;;;13.93;2.88;;;5.10;99.90;;;;;;5114823;27;20035;-68
2022/11/22 08:20:00;;;;;;;16.77;3.03;;;5.10;99.90;;;;;;5114101;27;20031;-69
2022/11/22 08:22:25;;;;;;;14.15;3.35;;;5.20;99.90;;;;;;5114180;27;20043;-68
2022/11/22 08:24:51;;;;;;;13.18;3.47;;;5.20;99.90;;;;;;5113110;27;20394;-69
2022/11/22 08:27:16;;;;;;;12.30;2.58;;;5.20;99.90;;;;;;5112984;27;20035;-70
2022/11/22 08:29:42;;;;;;;15.10;2.90;;;5.20;99.90;;;;;;5111095;27;20103;-70
2022/11/22 08:32:08;;;;;;;10.50;2.60;;;5.30;99.90;;;;;;5112897;27;20058;-68
2022/11/22 08:34:33;;;;;;;10.55;2.33;;;5.30;99.90;;;;;;5096083;27;20047;-68
2022/11/22 08:36:59;;;;;;;10.77;2.65;;;5.40;99.90;;;;;;5115754;27;20083;-69
2022/11/22 08:39:25;;;;;;;12.75;2.60;;;5.40;99.90;;;;;;5113303;27;20397;-70
2022/11/22 08:41:50;;;;;;;13.48;3.00;;;5.50;99.90;;;;;;5113645;27;20088;-67
2022/11/22 08:44:16;;;;;;;13.23;2.55;;;5.50;99.90;;;;;;5114197;27;20039;-67
2022/11/22 08:46:41;;;;;;;14.80;2.88;;;5.60;99.90;;;;;;5097538;27;20053;-67
2022/11/22 08:49:10;;;;;;;12.75;2.85;;;5.60;99.90;;;;;;5097046;27;20035;-69
2022/11/22 08:51:35;;;;;;;13.27;2.50;;;5.60;99.90;;;;;;5113655;27;20034;-68
2022/11/22 08:54:01;;;;;;;15.05;2.67;;;5.60;99.90;;;;;;5112969;27;20509;-67
2022/11/22 08:56:27;;;;;;;13.18;2.60;;;5.60;99.90;;;;;;5112457;27;20134;-69
2022/11/22 08:58:53;;;;;;;9.02;2.60;;;5.60;99.90;;;;;;5096054;27;20138;-68
2022/11/22 09:01:20;;;;;;;15.70;2.60;;;5.60;99.90;;;;;;5113679;27;20103;-68
2022/11/22 09:03:46;;;;;;;12.18;2.53;;;5.60;99.90;;;;;;5095089;27;20082;-69
2022/11/22 09:06:16;;;;;;;8.00;2.15;;;5.60;99.90;;;;;;5110890;27;20051;-70
2022/11/22 09:08:42;;;;;;;10.95;3.00;;;5.60;99.90;;;;;;5112734;27;20039;-68
2022/11/22 09:11:14;;;;;;;12.63;2.55;;;5.60;99.90;;;;;;5112808;27;20084;-69
2022/11/22 09:13:40;;;;;;;13.32;2.58;;;5.60;99.90;;;;;;5111624;27;20826;-68
2022/11/22 09:16:08;;;;;;;11.77;2.33;;;5.60;99.90;;;;;;5112469;27;20397;-70
2022/11/22 09:18:35;;;;;;;14.15;2.30;;;5.60;99.90;;;;;;5112798;27;20039;-69
2022/11/22 09:21:06;;;;;;;11.45;2.55;;;5.70;99.90;;;;;;5112824;27;20126;-69
2022/11/22 09:23:33;;;;;;;12.82;2.70;;;5.70;99.90;;;;;;5113005;27;20059;-69
2022/11/22 09:26:07;;;;;;;16.27;2.67;;;5.80;99.90;;;;;;5112550;27;20489;-69
2022/11/22 09:28:33;;;;;;;7.85;2.28;;;5.90;99.90;;;;;;5113720;27;20043;-69
2022/11/22 09:31:08;;;;;;;8.30;2.92;;;6.00;99.90;;;;;;5114202;27;20038;-69
2022/11/22 09:33:36;;;;;;;11.88;2.30;;;6.00;99.90;;;;;;5113042;27;20505;-69
2022/11/22 09:36:13;;;;;;;16.00;2.70;;;6.10;99.90;;;;;;5113061;27;20039;-69
2022/11/22 09:38:39;;;;;;;13.85;2.42;;;6.20;99.90;;;;;;5113339;27;22353;-67
2022/11/22 09:41:10;;;;;;;17.33;2.95;;;6.30;99.90;;;;;;5096612;27;20100;-69
2022/11/22 09:43:51;;;;;;;11.53;2.50;;;6.30;99.90;;;;;;5113062;27;20119;-68
2022/11/22 09:46:38;;;;;;;17.90;2.70;;;6.30;99.90;;;;;;5112621;27;20458;-68
2022/11/22 09:49:28;;;;;;;15.63;3.05;;;6.30;99.90;;;;;;5105393;27;20044;-69
2022/11/22 09:52:23;;;;;;;13.27;2.47;;;6.30;99.90;;;;;;5112686;27;20401;-69
2022/11/22 09:54:59;;;;;;;10.68;2.63;;;6.20;99.90;;;;;;5011122;28;20045;-69
2022/11/22 09:57:45;;;;;;;9.30;2.40;;;6.20;99.90;;;;;;5008413;28;20239;-69
2022/11/22 10:00:26;;;;;;;6.90;2.88;;;6.20;99.90;;;;;;5011096;28;20091;-69
2022/11/22 10:03:00;;;;;;;8.20;2.35;;;6.50;99.90;;;;;;5009243;28;20124;-70
2022/11/22 10:05:33;;;;;;;12.00;2.50;;;6.90;99.90;;;;;;5009857;28;20053;-69
2022/11/22 10:08:22;;;;;;;8.88;2.50;;;7.30;99.90;;;;;;5011088;28;20465;-69
2022/11/22 10:10:51;;;;;;;10.77;2.63;;;7.70;99.90;;;;;;5006045;28;20117;-68
2022/11/22 10:13:39;;;;;;;7.50;1.98;;;8.00;99.90;;;;;;5010297;28;20041;-69
2022/11/22 10:16:22;;;;;;;11.13;2.58;;;8.10;99.90;;;;;;5010320;28;20049;-68
2022/11/22 10:18:59;;;;;;;12.73;2.67;;;8.40;99.90;;;;;;5009238;28;20057;-68
2022/11/22 10:21:25;;;;;;;9.48;1.98;;;8.60;99.90;;;;;;5010669;28;20048;-68
2022/11/22 10:23:51;;;;;;;10.82;2.25;;;8.70;99.90;;;;;;5009359;28;20042;-70
2022/11/22 10:26:16;;;;;;;8.65;2.42;;;8.80;99.90;;;;;;5008211;28;20050;-69
2022/11/22 10:28:48;;;;;;;14.30;2.95;;;9.00;99.90;;;;;;5008470;28;20184;-68
2022/11/22 10:31:16;;;;;;;9.73;2.20;;;9.00;99.90;;;;;;5039766;28;20486;-68
2022/11/22 10:34:20;;;;;;;8.77;1.70;;;9.00;99.90;;;;;;5129436;27;20272;-68
2022/11/22 10:36:55;;;;;;;10.40;2.40;;;8.80;99.90;;;;;;5110476;28;20137;-68
2022/11/22 10:39:44;;;;;;;11.90;2.40;;;8.70;99.90;;;;;;5110997;28;20082;-69
2022/11/22 10:42:15;;;;;;;7.68;2.25;;;8.50;99.90;;;;;;5110888;28;20043;-69
2022/11/22 10:45:06;;;;;;;8.32;2.30;;;8.50;99.90;;;;;;5111462;28;20423;-69
2022/11/22 10:48:13;;;;;;;6.78;1.73;;;8.50;99.90;;;;;;5111308;28;20455;-69
2022/11/22 10:50:57;;;;;;;10.52;1.77;;;8.50;99.90;;;;;;5031082;28;20044;-69
2022/11/22 10:54:11;;;;;;;6.28;1.73;;;8.40;99.90;;;;;;5024230;28;20056;-69
2022/11/22 10:56:49;;;;;;;8.23;1.60;;;8.30;99.90;;;;;;4990039;28;20069;-69
2022/11/22 10:59:30;;;;;;;6.10;1.73;;;8.30;99.90;;;;;;4989894;28;20081;-71
2022/11/22 11:02:13;;;;;;;6.78;1.65;;;8.20;99.90;;;;;;4990425;28;20050;-69
2022/11/22 11:04:41;;;;;;;6.18;1.60;;;8.20;99.90;;;;;;4989241;28;20596;-69
2022/11/22 11:07:18;;;;;;;5.50;1.75;;;8.10;99.90;;;;;;4988636;28;20536;-68
2022/11/22 11:09:47;;;;;;;7.43;1.95;;;8.10;99.90;;;;;;5020927;28;20064;-69
2022/11/22 11:12:26;;;;;;;6.30;1.83;;;7.90;99.90;;;;;;5020614;28;20476;-69
2022/11/22 11:14:56;;;;;;;7.90;1.83;;;7.90;99.90;;;;;;4989791;28;20054;-69
2022/11/22 11:17:28;;;;;;;8.68;2.28;;;7.90;99.90;;;;;;4989226;28;20058;-69
2022/11/22 11:19:59;;;;;;;9.60;2.65;;;7.80;99.90;;;;;;4990442;28;20408;-69
2022/11/22 11:22:26;;;;;;;13.73;2.00;;;7.80;99.90;;;;;;4988785;28;20102;-69
2022/11/22 11:24:52;;;;;;;9.38;1.75;;;7.90;99.90;;;;;;4988762;28;20045;-69
2022/11/22 11:27:20;;;;;;;7.50;1.95;;;7.80;99.90;;;;;;5058632;28;20057;-68
2022/11/22 11:30:02;;;;;;;7.60;1.63;;;7.90;99.90;;;;;;5045924;28;20211;-69
2022/11/22 11:32:28;;;;;;;9.50;1.50;;;7.90;99.90;;;;;;5101480;28;20132;-68
2022/11/22 11:35:00;;;;;;;6.32;1.70;;;7.80;99.90;;;;;;5115358;28;20040;-69
2022/11/22 11:37:35;;;;;;;8.82;1.70;;;7.80;99.90;;;;;;5110473;28;20039;-69
2022/11/22 11:40:02;;;;;;;10.90;3.05;;;7.80;99.90;;;;;;5094533;27;20043;-69
2022/11/22 11:42:30;;;;;;;8.95;1.58;;;7.80;99.90;;;;;;5115031;27;20068;-70
2022/11/22 11:45:24;;;;;;;10.02;2.25;;;7.80;99.90;;;;;;5098134;27;20427;-70
2022/11/22 11:47:50;;;;;;;5.88;1.33;;;7.90;99.90;;;;;;5114098;27;20035;-68
2022/11/22 11:50:25;;;;;;;4.20;1.50;;;7.90;99.90;;;;;;5115040;27;20043;-68
2022/11/22 11:53:05;;;;;;;7.95;2.05;;;7.90;99.90;;;;;;5114106;27;20035;-69
2022/11/22 11:55:34;;;;;;;5.70;2.00;;;7.80;99.90;;;;;;5098313;27;20059;-69
2022/11/22 11:58:02;;;;;;;7.47;1.80;;;7.80;99.90;;;;;;5114979;27;20042;-69
2022/11/22 12:00:38;;;;;;;7.95;1.60;;;7.80;99.90;;;;;;5097589;27;20051;-69
2022/11/22 12:03:13;;;;;;;9.57;1.95;;;7.70;99.90;;;;;;5119534;27;20055;-70
2022/11/22 12:05:39;;;;;;;7.03;1.63;;;7.70;99.90;;;;;;5114506;27;20091;-67
2022/11/22 12:08:29;;;;;;;13.60;3.00;;;7.70;99.90;;;;;;5114679;27;20472;-67
2022/11/22 12:10:58;;;;;;;8.52;1.65;;;7.60;99.90;;;;;;5114398;27;20042;-69
2022/11/22 12:13:33;;;;;;;10.07;1.80;;;7.60;99.90;;;;;;5114287;27;20039;-69
2022/11/22 12:16:21;;;;;;;8.57;1.63;;;7.50;99.90;;;;;;5115363;27;20088;-69
2022/11/22 12:19:14;;;;;;;6.85;1.70;;;7.50;99.90;;;;;;5096690;27;20047;-67
2022/11/22 12:22:00;;;;;;;7.55;2.15;;;7.50;99.90;;;;;;5113165;27;20066;-69
2022/11/22 12:24:49;;;;;;;7.18;1.98;;;7.50;99.90;;;;;;5115264;27;20047;-69
2022/11/22 12:27:14;;;;;;;5.97;1.55;;;7.50;99.90;;;;;;5113106;27;20474;-69
2022/11/22 12:29:43;;;;;;;9.38;1.50;;;7.40;99.90;;;;;;5113386;27;20108;-68
2022/11/22 12:32:22;;;;;;;7.65;1.38;;;7.40;99.90;;;;;;5113367;27;20057;-68
2022/11/22 12:34:56;;;;;;;8.32;1.67;;;7.40;99.90;;;;;;5113894;27;20496;-68
2022/11/22 12:37:30;;;;;;;5.35;1.30;;;7.40;99.90;;;;;;5113767;27;20062;-69
2022/11/22 12:40:01;;;;;;;6.13;1.67;;;7.40;99.90;;;;;;5111475;27;20047;-69
2022/11/22 12:42:39;;;;;;;5.10;1.10;;;7.40;99.90;;;;;;5113105;27;20035;-68
2022/11/22 12:45:10;;;;;;;6.30;1.33;;;7.40;99.90;;;;;;5108230;27;20048;-69
2022/11/22 12:47:42;;;;;;;3.90;1.47;;;7.40;99.90;;;;;;5095148;27;20455;-68
2022/11/22 12:50:17;;;;;;;6.25;1.02;;;7.40;99.90;;;;;;5113948;27;20046;-68
2022/11/22 12:53:09;;;;;;;4.47;1.38;;;7.40;99.90;;;;;;5096094;27;20450;-69
2022/11/22 12:55:50;;;;;;;5.93;1.38;;;7.40;99.90;;;;;;5110917;27;20043;-68
2022/11/22 12:58:45;;;;;;;5.25;1.42;;;7.40;99.90;;;;;;5111076;27;20070;-68
2022/11/22 13:01:11;;;;;;;4.75;1.70;;;7.30;99.90;;;;;;5073392;27;20043;-69
2022/11/22 13:03:44;;;;;;;5.60;1.40;;;7.30;99.90;;;;;;5113111;27;20195;-68
2022/11/22 13:06:10;;;;;;;5.30;2.17;;;7.30;99.90;;;;;;5113632;27;20061;-70
2022/11/22 13:08:59;;;;;;;4.72;1.63;;;7.30;99.90;;;;;;5112068;27;20461;-68
2022/11/22 13:11:39;;;;;;;5.22;1.52;;;7.30;99.90;;;;;;5109528;27;20043;-68